Time,TemperatureF,DewpointF,PressureIn,WindDirection,WindDirectionDegrees,WindSpeedMPH,WindSpeedGustMPH,Humidity,HourlyPrecipIn,Conditions,Clouds,dailyrainin,SoftwareType,DateUTC
2013-01-25 00:00:00,55.5,50.4,30.27,NE,41,0.0,2.0,83,0.00,,,0.00,Weather View 32 v70,2013-01-25 05:00:00,
2013-01-25 00:10:00,55.1,50.3,30.27,NE,41,0.0,2.0,84,0.00,,,0.00,Weather View 32 v70,2013-01-25 05:10:00,
2013-01-25 00:20:00,54.6,50.2,30.27,NE,41,0.0,2.0,85,0.00,,,0.00,Weather View 32 v70,2013-01-25 05:20:00,
2013-01-25 00:30:00,54.1,49.7,30.27,NE,41,0.0,1.0,85,0.00,,,0.00,Weather View 32 v70,2013-01-25 05:30:00,
2013-01-25 00:40:00,53.6,49.5,30.28,NE,41,0.0,1.0,86,0.00,,,0.00,Weather View 32 v70,2013-01-25 05:40:00,
2013-01-25 00:50:00,53.2,49.1,30.28,NE,41,0.0,2.0,86,0.00,,,0.00,Weather View 32 v70,2013-01-25 05:50:00,
2013-01-25 01:00:00,52.6,49.1,30.28,North,10,1.0,3.0,88,0.00,,,0.00,Weather View 32 v70,2013-01-25 06:00:00,
2013-01-25 01:02:00,52.6,49.1,30.28,North,10,1.0,3.0,88,0.00,,,0.00,Weather View 32 v70,2013-01-25 06:02:00,
2013-01-25 01:10:00,52.5,49.0,30.28,North,5,0.0,3.0,88,0.00,,,0.00,Weather View 32 v70,2013-01-25 06:10:00,
2013-01-25 01:20:00,52.5,49.0,30.28,North,5,0.0,3.0,88,0.00,,,0.00,Weather View 32 v70,2013-01-25 06:20:00,
2013-01-25 01:30:00,52.4,48.9,30.28,North,5,1.0,3.0,88,0.00,,,0.00,Weather View 32 v70,2013-01-25 06:30:00,
2013-01-25 01:40:00,52.4,48.9,30.28,North,5,1.0,3.0,88,0.00,,,0.00,Weather View 32 v70,2013-01-25 06:40:00,
2013-01-25 01:50:00,52.6,49.1,30.28,North,5,1.0,3.0,88,0.00,,,0.00,Weather View 32 v70,2013-01-25 06:50:00,
2013-01-25 02:00:00,52.6,49.1,30.28,North,5,0.0,3.0,88,0.00,,,0.00,Weather View 32 v70,2013-01-25 07:00:00,
2013-01-25 02:10:00,52.6,49.1,30.28,North,5,1.0,3.0,88,0.00,,,0.00,Weather View 32 v70,2013-01-25 07:10:00,
2013-01-25 02:20:00,52.7,49.5,30.28,North,5,0.0,3.0,89,0.00,,,0.00,Weather View 32 v70,2013-01-25 07:20:00,
2013-01-25 02:30:00,52.7,49.5,30.28,North,5,0.0,3.0,89,0.00,,,0.00,Weather View 32 v70,2013-01-25 07:30:00,
2013-01-25 02:40:00,52.7,49.8,30.28,North,5,0.0,2.0,90,0.00,,,0.00,Weather View 32 v70,2013-01-25 07:40:00,
2013-01-25 02:50:00,52.9,50.3,30.27,North,5,0.0,2.0,91,0.00,,,0.00,Weather View 32 v70,2013-01-25 07:50:00,
2013-01-25 03:00:00,53.2,50.6,30.27,North,5,0.0,2.0,91,0.00,,,0.00,Weather View 32 v70,2013-01-25 08:00:00,
2013-01-25 03:03:00,53.2,50.6,30.27,North,5,0.0,2.0,91,0.00,,,0.00,Weather View 32 v70,2013-01-25 08:03:00,
2013-01-25 03:10:00,53.5,51.2,30.27,North,5,0.0,2.0,92,0.00,,,0.00,Weather View 32 v70,2013-01-25 08:10:00,
2013-01-25 03:20:00,53.6,51.3,30.27,East,90,0.0,2.0,92,0.00,,,0.00,Weather View 32 v70,2013-01-25 08:20:00,
2013-01-25 03:30:00,54.2,52.2,30.27,ESE,108,0.0,5.0,93,0.00,,,0.00,Weather View 32 v70,2013-01-25 08:30:00,
2013-01-25 03:40:00,54.9,52.6,30.27,East,101,0.0,6.0,92,0.00,,,0.00,Weather View 32 v70,2013-01-25 08:40:00,
2013-01-25 03:50:00,55.4,52.8,30.27,East,95,2.0,7.0,91,0.00,,,0.00,Weather View 32 v70,2013-01-25 08:50:00,
2013-01-25 04:00:00,55.8,52.9,30.27,East,88,2.0,8.0,90,0.00,,,0.00,Weather View 32 v70,2013-01-25 09:00:00,
2013-01-25 04:03:00,55.8,52.9,30.27,East,88,2.0,8.0,90,0.00,,,0.00,Weather View 32 v70,2013-01-25 09:03:00,
2013-01-25 04:10:00,55.9,52.7,30.28,ENE,78,1.0,9.0,89,0.00,,,0.00,Weather View 32 v70,2013-01-25 09:10:00,
2013-01-25 04:20:00,55.8,52.6,30.28,NNE,28,2.0,9.0,89,0.00,,,0.00,Weather View 32 v70,2013-01-25 09:20:00,
2013-01-25 04:30:00,55.7,52.8,30.28,ENE,69,3.0,9.0,90,0.00,,,0.00,Weather View 32 v70,2013-01-25 09:30:00,
2013-01-25 04:40:00,55.5,52.6,30.28,East,80,0.0,9.0,90,0.00,,,0.00,Weather View 32 v70,2013-01-25 09:40:00,
2013-01-25 04:50:00,55.3,52.4,30.28,East,82,1.0,9.0,90,0.00,,,0.00,Weather View 32 v70,2013-01-25 09:50:00,
2013-01-25 05:00:00,55.2,52.3,30.28,ENE,78,1.0,9.0,90,0.00,,,0.00,Weather View 32 v70,2013-01-25 10:00:00,
2013-01-25 05:04:00,55.2,52.3,30.28,ENE,78,1.0,9.0,90,0.00,,,0.00,Weather View 32 v70,2013-01-25 10:04:00,
2013-01-25 05:10:00,55.0,52.1,30.28,NE,53,0.0,7.0,90,0.00,,,0.00,Weather View 32 v70,2013-01-25 10:10:00,
2013-01-25 05:20:00,54.8,51.9,30.28,East,79,0.0,7.0,90,0.00,,,0.00,Weather View 32 v70,2013-01-25 10:20:00,
2013-01-25 05:30:00,54.7,52.1,30.28,East,82,1.0,7.0,91,0.00,,,0.00,Weather View 32 v70,2013-01-25 10:30:00,
2013-01-25 05:40:00,54.6,52.0,30.28,ENE,61,0.0,7.0,91,0.00,,,0.00,Weather View 32 v70,2013-01-25 10:40:00,
2013-01-25 05:50:00,54.6,52.0,30.28,East,88,3.0,7.0,91,0.00,,,0.00,Weather View 32 v70,2013-01-25 10:50:00,
2013-01-25 06:00:00,54.6,52.0,30.28,ENE,76,0.0,7.0,91,0.00,,,0.00,Weather View 32 v70,2013-01-25 11:00:00,
2013-01-25 06:05:00,54.6,52.0,30.28,ENE,76,0.0,7.0,91,0.00,,,0.00,Weather View 32 v70,2013-01-25 11:05:00,
2013-01-25 06:10:00,54.5,51.9,30.28,East,93,0.0,6.0,91,0.00,,,0.00,Weather View 32 v70,2013-01-25 11:10:00,
2013-01-25 06:20:00,54.4,51.8,30.29,NNE,27,0.0,6.0,91,0.00,,,0.00,Weather View 32 v70,2013-01-25 11:20:00,
2013-01-25 06:30:00,54.2,51.6,30.29,East,97,0.0,6.0,91,0.00,,,0.00,Weather View 32 v70,2013-01-25 11:30:00,
2013-01-25 06:40:00,53.9,51.6,30.29,East,97,0.0,5.0,92,0.00,,,0.00,Weather View 32 v70,2013-01-25 11:40:00,
2013-01-25 06:50:00,53.7,51.4,30.30,East,97,0.0,5.0,92,0.00,,,0.00,Weather View 32 v70,2013-01-25 11:50:00,
2013-01-25 07:00:00,53.7,51.7,30.30,East,83,3.0,3.0,93,0.00,,,0.00,Weather View 32 v70,2013-01-25 12:00:00,
2013-01-25 07:05:00,53.7,51.7,30.30,East,83,3.0,3.0,93,0.00,,,0.00,Weather View 32 v70,2013-01-25 12:05:00,
2013-01-25 07:10:00,53.8,51.8,30.30,East,83,0.0,4.0,93,0.00,,,0.00,Weather View 32 v70,2013-01-25 12:10:00,
2013-01-25 07:20:00,53.7,51.7,30.30,East,98,0.0,4.0,93,0.00,,,0.00,Weather View 32 v70,2013-01-25 12:20:00,
2013-01-25 07:30:00,53.9,51.9,30.30,ENE,76,4.0,4.0,93,0.00,,,0.00,Weather View 32 v70,2013-01-25 12:30:00,
2013-01-25 07:40:00,54.1,52.1,30.31,East,80,0.0,4.0,93,0.00,,,0.00,Weather View 32 v70,2013-01-25 12:40:00,
2013-01-25 07:50:00,54.2,52.2,30.31,ENE,76,0.0,4.0,93,0.00,,,0.00,Weather View 32 v70,2013-01-25 12:50:00,
2013-01-25 08:00:00,54.4,52.4,30.31,East,94,2.0,4.0,93,0.00,,,0.00,Weather View 32 v70,2013-01-25 13:00:00,
2013-01-25 08:06:00,54.4,52.4,30.31,East,94,2.0,4.0,93,0.00,,,0.00,Weather View 32 v70,2013-01-25 13:06:00,
2013-01-25 08:20:00,54.9,52.9,30.31,ESE,107,3.0,5.0,93,0.00,,,0.00,Weather View 32 v70,2013-01-25 13:20:00,
2013-01-25 08:30:00,55.2,53.2,30.31,East,88,5.0,5.0,93,0.00,,,0.00,Weather View 32 v70,2013-01-25 13:30:00,
2013-01-25 08:40:00,55.5,53.2,30.31,ESE,102,2.0,6.0,92,0.00,,,0.00,Weather View 32 v70,2013-01-25 13:40:00,
2013-01-25 08:50:00,55.9,53.6,30.31,SSE,150,4.0,8.0,92,0.00,,,0.00,Weather View 32 v70,2013-01-25 13:50:00,
2013-01-25 09:00:00,56.6,54.0,30.31,East,96,5.0,8.0,91,0.00,,,0.00,Weather View 32 v70,2013-01-25 14:00:00,
2013-01-25 09:06:00,56.6,54.0,30.31,East,96,5.0,8.0,91,0.00,,,0.00,Weather View 32 v70,2013-01-25 14:06:00,
2013-01-25 09:10:00,57.6,54.4,30.32,ESE,114,5.0,8.0,89,0.00,,,0.00,Weather View 32 v70,2013-01-25 14:10:00,
2013-01-25 09:20:00,58.0,54.8,30.32,East,97,6.0,10.0,89,0.00,,,0.00,Weather View 32 v70,2013-01-25 14:20:00,
2013-01-25 09:30:00,58.5,54.9,30.32,ESE,109,1.0,10.0,88,0.00,,,0.00,Weather View 32 v70,2013-01-25 14:30:00,
2013-01-25 09:40:00,59.0,55.1,30.32,ESE,113,2.0,10.0,87,0.00,,,0.00,Weather View 32 v70,2013-01-25 14:40:00,
2013-01-25 09:50:00,59.7,55.5,30.32,ESE,104,0.0,10.0,86,0.00,,,0.00,Weather View 32 v70,2013-01-25 14:50:00,
2013-01-25 10:00:00,60.4,55.5,30.32,SE,137,4.0,10.0,84,0.00,,,0.00,Weather View 32 v70,2013-01-25 15:00:00,
2013-01-25 10:07:00,60.4,55.5,30.32,SE,137,4.0,10.0,84,0.00,,,0.00,Weather View 32 v70,2013-01-25 15:07:00,
2013-01-25 10:10:00,61.5,55.9,30.32,SSE,155,0.0,10.0,82,0.00,,,0.00,Weather View 32 v70,2013-01-25 15:10:00,
2013-01-25 10:20:00,62.3,56.4,30.31,South,170,0.0,8.0,81,0.00,,,0.00,Weather View 32 v70,2013-01-25 15:20:00,
2013-01-25 10:30:00,63.1,56.8,30.31,SSE,161,3.0,5.0,80,0.00,,,0.00,Weather View 32 v70,2013-01-25 15:30:00,
2013-01-25 10:40:00,63.5,55.8,30.31,ESE,121,2.0,5.0,76,0.00,,,0.00,Weather View 32 v70,2013-01-25 15:40:00,
2013-01-25 10:50:00,64.3,56.9,30.31,SW,226,2.0,5.0,77,0.00,,,0.00,Weather View 32 v70,2013-01-25 15:50:00,
2013-01-25 11:00:00,64.1,56.7,30.31,WSW,246,0.0,5.0,77,0.00,,,0.00,Weather View 32 v70,2013-01-25 16:00:00,
2013-01-25 11:07:00,64.1,56.7,30.31,WSW,246,0.0,5.0,77,0.00,,,0.00,Weather View 32 v70,2013-01-25 16:07:00,
2013-01-25 11:10:00,64.6,56.1,30.31,WSW,256,2.0,5.0,74,0.00,,,0.00,Weather View 32 v70,2013-01-25 16:10:00,
2013-01-25 11:20:00,65.3,56.4,30.30,WSW,252,2.0,5.0,73,0.00,,,0.00,Weather View 32 v70,2013-01-25 16:20:00,
2013-01-25 11:30:00,65.8,56.5,30.30,WSW,252,0.0,5.0,72,0.00,,,0.00,Weather View 32 v70,2013-01-25 16:30:00,
2013-01-25 11:40:00,66.6,55.7,30.30,WSW,252,1.0,4.0,68,0.00,,,0.00,Weather View 32 v70,2013-01-25 16:40:00,
2013-01-25 11:50:00,67.3,55.9,30.29,WSW,252,0.0,4.0,67,0.00,,,0.00,Weather View 32 v70,2013-01-25 16:50:00,
2013-01-25 12:00:00,68.1,55.9,30.28,WSW,252,0.0,4.0,65,0.00,,,0.00,Weather View 32 v70,2013-01-25 17:00:00,
2013-01-25 12:08:00,68.1,55.9,30.28,WSW,252,0.0,4.0,65,0.00,,,0.00,Weather View 32 v70,2013-01-25 17:08:00,
2013-01-25 12:10:00,68.0,55.8,30.28,WSW,252,0.0,3.0,65,0.00,,,0.00,Weather View 32 v70,2013-01-25 17:10:00,
2013-01-25 12:20:00,68.5,56.2,30.27,WSW,252,0.0,3.0,65,0.00,,,0.00,Weather View 32 v70,2013-01-25 17:20:00,
2013-01-25 12:30:00,69.7,51.2,30.26,NNW,333,0.0,3.0,52,0.00,,,0.00,Weather View 32 v70,2013-01-25 17:30:00,
2013-01-25 12:40:00,70.5,51.4,30.24,ESE,102,3.0,4.0,51,0.00,,,0.00,Weather View 32 v70,2013-01-25 17:40:00,
2013-01-25 12:50:00,71.2,51.0,30.24,North,360,0.0,4.0,49,0.00,,,0.00,Weather View 32 v70,2013-01-25 17:50:00,
2013-01-25 13:00:00,71.1,49.2,30.23,WSW,242,2.0,10.0,46,0.00,,,0.00,Weather View 32 v70,2013-01-25 18:00:00,
2013-01-25 13:08:00,71.1,49.2,30.23,WSW,242,2.0,10.0,46,0.00,,,0.00,Weather View 32 v70,2013-01-25 18:08:00,
2013-01-25 13:20:00,71.5,49.0,30.22,NW,323,0.0,10.0,45,0.00,,,0.00,Weather View 32 v70,2013-01-25 18:20:00,
2013-01-25 13:30:00,71.5,51.3,30.21,SW,234,3.0,10.0,49,0.00,,,0.00,Weather View 32 v70,2013-01-25 18:30:00,
2013-01-25 13:40:00,71.3,51.6,30.20,WSW,245,3.0,10.0,50,0.00,,,0.00,Weather View 32 v70,2013-01-25 18:40:00,
2013-01-25 13:50:00,72.0,51.7,30.20,West,261,1.0,10.0,49,0.00,,,0.00,Weather View 32 v70,2013-01-25 18:50:00,
2013-01-25 14:00:00,72.7,51.2,30.19,WSW,242,2.0,9.0,47,0.00,,,0.00,Weather View 32 v70,2013-01-25 19:00:00,
2013-01-25 14:09:00,72.7,51.2,30.19,WSW,242,2.0,9.0,47,0.00,,,0.00,Weather View 32 v70,2013-01-25 19:09:00,
2013-01-25 14:10:00,71.8,52.6,30.19,SSW,213,0.0,9.0,51,0.00,,,0.00,Weather View 32 v70,2013-01-25 19:10:00,
2013-01-25 14:20:00,71.5,51.3,30.19,WSW,240,2.0,8.0,49,0.00,,,0.00,Weather View 32 v70,2013-01-25 19:20:00,
2013-01-25 14:30:00,72.8,51.3,30.18,North,5,2.0,8.0,47,0.00,,,0.00,Weather View 32 v70,2013-01-25 19:30:00,
2013-01-25 14:40:00,73.0,50.3,30.18,North,9,0.0,8.0,45,0.00,,,0.00,Weather View 32 v70,2013-01-25 19:40:00,
2013-01-25 14:50:00,73.5,50.2,30.18,NNE,17,7.0,8.0,44,0.00,,,0.00,Weather View 32 v70,2013-01-25 19:50:00,
2013-01-25 15:00:00,73.0,50.9,30.18,WSW,248,8.0,9.0,46,0.00,,,0.00,Weather View 32 v70,2013-01-25 20:00:00,
2013-01-25 15:10:00,73.0,50.3,30.17,WSW,242,4.0,9.0,45,0.00,,,0.00,Weather View 32 v70,2013-01-25 20:10:00,
2013-01-25 15:20:00,73.3,50.6,30.17,NNE,25,1.0,9.0,45,0.00,,,0.00,Weather View 32 v70,2013-01-25 20:20:00,
2013-01-25 15:30:00,73.6,50.9,30.17,WNW,300,3.0,9.0,45,0.00,,,0.00,Weather View 32 v70,2013-01-25 20:30:00,
2013-01-25 15:40:00,73.3,51.2,30.17,NW,323,1.0,9.0,46,0.00,,,0.00,Weather View 32 v70,2013-01-25 20:40:00,
2013-01-25 15:50:00,73.8,50.5,30.18,WSW,252,2.0,9.0,44,0.00,,,0.00,Weather View 32 v70,2013-01-25 20:50:00,
2013-01-25 16:00:00,73.7,49.7,30.17,West,261,0.0,11.0,43,0.00,,,0.00,Weather View 32 v70,2013-01-25 21:00:00,
2013-01-25 16:11:00,73.8,50.5,30.18,West,280,3.0,11.0,44,0.00,,,0.00,Weather View 32 v70,2013-01-25 21:11:00,
2013-01-25 16:20:00,73.7,50.4,30.17,WNW,293,0.0,11.0,44,0.00,,,0.00,Weather View 32 v70,2013-01-25 21:20:00,
2013-01-25 16:30:00,73.8,51.1,30.17,North,5,3.0,11.0,45,0.00,,,0.00,Weather View 32 v70,2013-01-25 21:30:00,
2013-01-25 16:40:00,73.4,50.7,30.17,NNW,331,1.0,11.0,45,0.00,,,0.00,Weather View 32 v70,2013-01-25 21:40:00,
2013-01-25 16:50:00,73.1,50.4,30.17,NE,53,1.0,11.0,45,0.00,,,0.00,Weather View 32 v70,2013-01-25 21:50:00,
2013-01-25 17:00:00,72.6,51.2,30.17,NW,310,0.0,8.0,47,0.00,,,0.00,Weather View 32 v70,2013-01-25 22:00:00,
2013-01-25 17:10:00,72.0,50.6,30.17,NW,311,0.0,8.0,47,0.00,,,0.00,Weather View 32 v70,2013-01-25 22:10:00,
2013-01-25 17:12:00,72.0,50.6,30.17,NW,311,0.0,8.0,47,0.00,,,0.00,Weather View 32 v70,2013-01-25 22:12:00,
2013-01-25 17:20:00,71.5,51.3,30.16,NW,311,0.0,8.0,49,0.00,,,0.00,Weather View 32 v70,2013-01-25 22:20:00,
2013-01-25 17:30:00,71.2,51.6,30.16,NW,311,0.0,8.0,50,0.00,,,0.00,Weather View 32 v70,2013-01-25 22:30:00,
2013-01-25 17:40:00,70.6,51.5,30.16,NW,311,0.0,5.0,51,0.00,,,0.00,Weather View 32 v70,2013-01-25 22:40:00,
2013-01-25 17:50:00,70.0,51.5,30.17,NW,311,0.0,5.0,52,0.00,,,0.00,Weather View 32 v70,2013-01-25 22:50:00,
2013-01-25 18:00:00,69.2,52.3,30.17,NW,311,0.0,4.0,55,0.00,,,0.00,Weather View 32 v70,2013-01-25 23:00:00,
2013-01-25 18:10:00,68.2,52.3,30.18,NW,311,0.0,1.0,57,0.00,,,0.00,Weather View 32 v70,2013-01-25 23:10:00,
2013-01-25 18:12:00,68.2,52.3,30.18,NW,311,0.0,1.0,57,0.00,,,0.00,Weather View 32 v70,2013-01-25 23:12:00,
2013-01-25 18:20:00,67.0,52.2,30.17,NW,311,0.0,1.0,59,0.00,,,0.00,Weather View 32 v70,2013-01-25 23:20:00,
2013-01-25 18:30:00,65.8,51.0,30.18,NW,311,0.0,1.0,59,0.00,,,0.00,Weather View 32 v70,2013-01-25 23:30:00,
2013-01-25 18:40:00,64.7,51.3,30.18,NW,311,0.0,1.0,62,0.00,,,0.00,Weather View 32 v70,2013-01-25 23:40:00,
2013-01-25 18:50:00,63.8,50.9,30.18,NW,311,0.0,1.0,63,0.00,,,0.00,Weather View 32 v70,2013-01-25 23:50:00,
2013-01-25 19:00:00,62.9,50.9,30.17,NW,311,0.0,1.0,65,0.00,,,0.00,Weather View 32 v70,2013-01-26 00:00:00,
2013-01-25 19:10:00,62.1,50.6,30.17,NW,311,0.0,1.0,66,0.00,,,0.00,Weather View 32 v70,2013-01-26 00:10:00,
2013-01-25 19:13:00,62.1,50.6,30.17,NW,311,0.0,1.0,66,0.00,,,0.00,Weather View 32 v70,2013-01-26 00:13:00,
2013-01-25 19:20:00,61.4,51.1,30.17,NW,311,0.0,1.0,69,0.00,,,0.00,Weather View 32 v70,2013-01-26 00:20:00,
2013-01-25 19:30:00,60.3,50.8,30.18,NW,311,0.0,1.0,71,0.00,,,0.00,Weather View 32 v70,2013-01-26 00:30:00,
2013-01-25 19:40:00,59.2,50.2,30.18,NW,311,0.0,1.0,72,0.00,,,0.00,Weather View 32 v70,2013-01-26 00:40:00,
2013-01-25 19:50:00,58.7,49.7,30.19,NW,311,0.0,1.0,72,0.00,,,0.00,Weather View 32 v70,2013-01-26 00:50:00,
2013-01-25 20:00:00,58.4,49.8,30.18,NW,311,0.0,1.0,73,0.00,,,0.00,Weather View 32 v70,2013-01-26 01:00:00,
2013-01-25 20:10:00,58.1,49.8,30.19,NW,311,0.0,1.0,74,0.00,,,0.00,Weather View 32 v70,2013-01-26 01:10:00,
2013-01-25 20:13:00,58.1,49.8,30.19,NW,311,0.0,1.0,74,0.00,,,0.00,Weather View 32 v70,2013-01-26 01:13:00,
2013-01-25 20:20:00,57.8,49.5,30.19,NW,311,0.0,1.0,74,0.00,,,0.00,Weather View 32 v70,2013-01-26 01:20:00,
2013-01-25 20:30:00,57.6,49.4,30.19,NW,311,0.0,1.0,74,0.00,,,0.00,Weather View 32 v70,2013-01-26 01:30:00,
2013-01-25 20:40:00,57.2,49.0,30.19,NW,311,0.0,1.0,74,0.00,,,0.00,Weather View 32 v70,2013-01-26 01:40:00,
2013-01-25 20:50:00,56.8,48.9,30.19,NW,311,0.0,1.0,75,0.00,,,0.00,Weather View 32 v70,2013-01-26 01:50:00,
2013-01-25 21:00:00,56.4,48.6,30.19,NW,311,0.0,1.0,75,0.00,,,0.00,Weather View 32 v70,2013-01-26 02:00:00,
2013-01-25 21:10:00,55.8,48.7,30.19,NW,311,0.0,1.0,77,0.00,,,0.00,Weather View 32 v70,2013-01-26 02:10:00,
2013-01-25 21:14:00,55.8,48.7,30.19,NW,311,0.0,1.0,77,0.00,,,0.00,Weather View 32 v70,2013-01-26 02:14:00,
2013-01-25 21:20:00,55.2,48.4,30.20,NW,311,0.0,0.0,78,0.00,,,0.00,Weather View 32 v70,2013-01-26 02:20:00,
2013-01-25 21:30:00,54.7,48.3,30.20,NW,311,0.0,0.0,79,0.00,,,0.00,Weather View 32 v70,2013-01-26 02:30:00,
2013-01-25 21:40:00,54.4,48.0,30.20,NW,311,0.0,0.0,79,0.00,,,0.00,Weather View 32 v70,2013-01-26 02:40:00,
2013-01-25 21:50:00,54.0,48.0,30.20,NW,311,0.0,0.0,80,0.00,,,0.00,Weather View 32 v70,2013-01-26 02:50:00,
2013-01-25 22:00:00,53.5,47.8,30.20,NW,311,0.0,0.0,81,0.00,,,0.00,Weather View 32 v70,2013-01-26 03:00:00,
2013-01-25 22:10:00,53.2,47.5,30.20,NW,311,0.0,0.0,81,0.00,,,0.00,Weather View 32 v70,2013-01-26 03:10:00,
2013-01-25 22:20:00,53.1,47.4,30.20,NW,311,0.0,0.0,81,0.00,,,0.00,Weather View 32 v70,2013-01-26 03:20:00,
2013-01-25 22:30:00,53.0,47.3,30.20,NW,311,0.0,0.0,81,0.00,,,0.00,Weather View 32 v70,2013-01-26 03:30:00,
2013-01-25 22:40:00,53.1,47.7,30.21,NW,320,0.0,1.0,82,0.00,,,0.00,Weather View 32 v70,2013-01-26 03:40:00,
2013-01-25 22:50:00,53.4,47.7,30.20,NW,320,0.0,1.0,81,0.00,,,0.00,Weather View 32 v70,2013-01-26 03:50:00,
2013-01-25 23:00:00,53.3,47.3,30.21,NW,320,0.0,1.0,80,0.00,,,0.00,Weather View 32 v70,2013-01-26 04:00:00,
2013-01-25 23:10:00,53.1,47.4,30.21,NW,320,0.0,1.0,81,0.00,,,0.00,Weather View 32 v70,2013-01-26 04:10:00,
2013-01-25 23:15:00,53.1,47.4,30.21,NW,320,0.0,1.0,81,0.00,,,0.00,Weather View 32 v70,2013-01-26 04:15:00,
2013-01-25 23:30:00,52.1,46.8,30.21,North,5,0.0,1.0,82,0.00,,,0.00,Weather View 32 v70,2013-01-26 04:30:00,
2013-01-25 23:40:00,51.5,46.5,30.21,North,5,0.0,1.0,83,0.00,,,0.00,Weather View 32 v70,2013-01-26 04:40:00,
2013-01-25 23:50:00,51.1,46.7,30.21,North,5,0.0,1.0,85,0.00,,,0.00,Weather View 32 v70,2013-01-26 04:50:00,